Time;durP1;ratioP1;P1;durP2;ratioP2;P2;SDS_P1;SDS_P2;PMS_P1;PMS_P2;Temp;Humidity;BMP_temperature;BMP_pressure;BME280_temperature;BME280_humidity;BME280_pressure;Samples;Min_cycle;Max_cycle;Signal;HPM_P1;HPM_P2
2023/03/23 00:02:02;;;;;;;18.93;13.53;;;;;;;;;;5072052;28;20228;-68
2023/03/23 00:04:29;;;;;;;18.90;12.93;;;;;;;;;;5065691;28;20233;-68
2023/03/23 00:06:54;;;;;;;19.20;12.70;;;;;;;;;;5041220;28;20320;-68
2023/03/23 00:09:23;;;;;;;19.47;12.70;;;;;;;;;;5065928;28;20687;-68
2023/03/23 00:11:50;;;;;;;16.90;12.87;;;;;;;;;;5067353;27;20217;-68
2023/03/23 00:14:15;;;;;;;18.63;12.83;;;;;;;;;;5084772;27;20228;-68
2023/03/23 00:16:42;;;;;;;18.10;12.57;;;;;;;;;;5047210;27;20594;-68
2023/03/23 00:19:14;;;;;;;18.67;12.87;;;;;;;;;;5054322;28;20228;-68
2023/03/23 00:21:41;;;;;;;18.83;12.17;;;;;;;;;;5062980;28;20290;-67
2023/03/23 00:24:16;;;;;;;17.63;12.47;;;;;;;;;;5064498;28;20311;-68
2023/03/23 00:26:43;;;;;;;16.57;11.87;;;;;;;;;;5064204;28;20221;-68
2023/03/23 00:29:13;;;;;;;17.07;12.90;;;;;;;;;;5043462;28;20224;-67
2023/03/23 00:31:40;;;;;;;17.00;12.23;;;;;;;;;;5029677;28;20709;-67
2023/03/23 00:34:05;;;;;;;16.37;11.67;;;;;;;;;;5063973;28;20263;-67
2023/03/23 00:36:32;;;;;;;18.80;11.60;;;;;;;;;;5028184;28;20253;-67
2023/03/23 00:39:01;;;;;;;16.20;12.10;;;;;;;;;;5064028;28;20236;-68
2023/03/23 00:41:27;;;;;;;16.17;11.37;;;;;;;;;;5064028;28;20514;-67
2023/03/23 00:43:53;;;;;;;18.60;12.30;;;;;;;;;;5059257;28;20249;-67
2023/03/23 00:46:20;;;;;;;17.10;12.17;;;;;;;;;;5069270;28;20683;-67
2023/03/23 00:48:46;;;;;;;16.27;11.93;;;;;;;;;;5053194;28;20230;-68
2023/03/23 00:51:11;;;;;;;15.57;12.27;;;;;;;;;;5045955;28;20228;-67
2023/03/23 00:53:40;;;;;;;18.03;11.93;;;;;;;;;;5062532;28;20231;-67
2023/03/23 00:56:07;;;;;;;18.73;11.80;;;;;;;;;;5038306;28;20236;-68
2023/03/23 00:58:32;;;;;;;18.60;12.17;;;;;;;;;;5062416;28;20236;-68
2023/03/23 01:00:58;;;;;;;18.47;11.77;;;;;;;;;;5059814;28;20225;-67
2023/03/23 01:03:25;;;;;;;19.83;12.63;;;;;;;;;;5026103;28;20230;-68
2023/03/23 01:05:51;;;;;;;15.60;11.03;;;;;;;;;;5060273;28;20659;-68
2023/03/23 01:08:18;;;;;;;17.03;11.47;;;;;;;;;;5062527;28;20216;-68
2023/03/23 01:10:44;;;;;;;19.53;12.30;;;;;;;;;;5051018;28;20367;-68
2023/03/23 01:13:10;;;;;;;17.07;12.20;;;;;;;;;;5046704;28;20301;-68
2023/03/23 01:15:35;;;;;;;15.40;11.63;;;;;;;;;;5062120;28;20229;-68
2023/03/23 01:18:01;;;;;;;18.20;12.67;;;;;;;;;;5044526;28;20661;-68
2023/03/23 01:20:29;;;;;;;17.17;12.37;;;;;;;;;;5049142;28;20330;-68
2023/03/23 01:23:00;;;;;;;18.20;12.43;;;;;;;;;;5047463;28;20233;-68
2023/03/23 01:25:26;;;;;;;16.80;11.23;;;;;;;;;;5045375;28;20221;-67
2023/03/23 01:27:51;;;;;;;16.33;12.17;;;;;;;;;;5047815;28;20635;-68
2023/03/23 01:30:17;;;;;;;17.97;11.77;;;;;;;;;;5054417;28;20225;-68
2023/03/23 01:32:42;;;;;;;15.87;11.13;;;;;;;;;;5078257;28;20225;-67
2023/03/23 01:35:09;;;;;;;16.73;11.27;;;;;;;;;;5061368;28;20740;-68
2023/03/23 01:37:36;;;;;;;14.50;11.07;;;;;;;;;;5047141;28;20221;-68
2023/03/23 01:40:04;;;;;;;15.13;11.10;;;;;;;;;;5059355;28;20306;-68
2023/03/23 02:17:49;;;;;;;16.43;11.60;;;;;;;;;;5001245;28;20226;-68
2023/03/23 02:20:23;;;;;;;18.13;11.87;;;;;;;;;;5003757;28;20685;-68
2023/03/23 02:22:53;;;;;;;16.93;11.77;;;;;;;;;;5034096;28;20222;-68
2023/03/23 02:25:19;;;;;;;14.70;10.17;;;;;;;;;;5024673;28;20238;-67
2023/03/23 02:27:51;;;;;;;15.87;11.80;;;;;;;;;;4998007;28;20383;-68
2023/03/23 02:30:22;;;;;;;16.20;11.33;;;;;;;;;;5042890;28;20218;-68
2023/03/23 02:32:48;;;;;;;15.40;10.63;;;;;;;;;;5016378;28;20226;-67
2023/03/23 02:35:20;;;;;;;17.60;11.60;;;;;;;;;;5042461;28;20233;-67
2023/03/23 02:37:47;;;;;;;15.03;10.77;;;;;;;;;;5058407;28;20271;-68
2023/03/23 02:40:16;;;;;;;19.77;11.50;;;;;;;;;;5045392;28;20230;-68
2023/03/23 02:42:42;;;;;;;16.43;11.57;;;;;;;;;;4964937;28;20276;-67
2023/03/23 02:45:08;;;;;;;14.17;10.53;;;;;;;;;;5027161;28;20337;-68
2023/03/23 02:47:34;;;;;;;16.10;10.93;;;;;;;;;;5026243;28;20228;-68
2023/03/23 02:50:00;;;;;;;15.47;10.43;;;;;;;;;;5028178;28;20221;-68
2023/03/23 02:52:26;;;;;;;15.80;11.20;;;;;;;;;;5029433;28;20262;-67
2023/03/23 02:54:52;;;;;;;14.30;10.60;;;;;;;;;;5041630;28;20252;-68
2023/03/23 02:57:18;;;;;;;14.23;10.50;;;;;;;;;;5012441;28;20229;-67
2023/03/23 02:59:45;;;;;;;14.10;9.93;;;;;;;;;;5041768;28;20222;-67
2023/03/23 03:02:16;;;;;;;15.80;10.60;;;;;;;;;;5028123;28;20260;-68
2023/03/23 03:04:44;;;;;;;15.37;10.53;;;;;;;;;;5024049;28;20316;-68
2023/03/23 03:07:15;;;;;;;14.87;10.33;;;;;;;;;;5043309;28;20232;-68
2023/03/23 03:09:43;;;;;;;16.60;10.53;;;;;;;;;;5023978;28;20234;-68
2023/03/23 03:12:18;;;;;;;13.47;10.13;;;;;;;;;;5000508;28;20225;-68
2023/03/23 03:14:52;;;;;;;15.17;10.97;;;;;;;;;;5008782;28;20256;-68
2023/03/23 03:17:20;;;;;;;17.20;11.57;;;;;;;;;;5056681;28;20685;-68
2023/03/23 03:19:46;;;;;;;19.73;12.03;;;;;;;;;;4997015;28;20218;-67
2023/03/23 03:22:12;;;;;;;15.67;11.40;;;;;;;;;;5063489;28;20229;-68
2023/03/23 03:24:40;;;;;;;17.30;11.50;;;;;;;;;;5061098;28;20222;-68
2023/03/23 03:27:10;;;;;;;14.57;10.90;;;;;;;;;;5047229;28;20741;-68
2023/03/23 03:29:45;;;;;;;16.20;11.13;;;;;;;;;;5043919;28;20244;-68
2023/03/23 03:32:12;;;;;;;15.48;12.60;;;;;;;;;;5050454;28;20484;-67
2023/03/23 03:34:38;;;;;;;16.20;10.67;;;;;;;;;;5077375;28;20305;-68
2023/03/23 03:37:05;;;;;;;16.80;10.53;;;;;;;;;;5046118;28;20228;-68
2023/03/23 03:39:36;;;;;;;13.03;9.90;;;;;;;;;;5050502;28;20212;-68
2023/03/23 03:42:03;;;;;;;12.90;9.93;;;;;;;;;;5068322;28;20256;-68
2023/03/23 03:44:28;;;;;;;14.23;10.20;;;;;;;;;;5051512;28;20736;-68
2023/03/23 03:46:55;;;;;;;13.30;10.43;;;;;;;;;;5061257;28;20664;-68
2023/03/23 03:49:22;;;;;;;14.13;10.40;;;;;;;;;;5082726;28;20516;-68
2023/03/23 03:51:48;;;;;;;19.30;12.87;;;;;;;;;;5072166;28;20221;-68
2023/03/23 03:54:19;;;;;;;19.70;13.10;;;;;;;;;;5066739;28;20710;-68
2023/03/23 03:56:45;;;;;;;18.57;12.13;;;;;;;;;;5065782;28;20229;-68
2023/03/23 03:59:32;;;;;;;17.23;10.40;;;;;;;;;;5053387;28;20334;-68
2023/03/23 04:02:19;;;;;;;13.47;8.57;;;;;;;;;;5064250;28;20232;-68
2023/03/23 04:04:47;;;;;;;16.07;9.50;;;;;;;;;;5057980;28;20718;-68
2023/03/23 04:07:13;;;;;;;14.37;9.23;;;;;;;;;;5057969;28;20226;-68
2023/03/23 04:09:40;;;;;;;13.07;9.70;;;;;;;;;;5042819;28;20228;-68
2023/03/23 04:12:05;;;;;;;14.43;9.63;;;;;;;;;;5094342;27;20264;-68
2023/03/23 04:15:07;;;;;;;14.17;8.83;;;;;;;;;;5059003;28;20231;-68
2023/03/23 04:17:35;;;;;;;13.70;9.30;;;;;;;;;;5056031;28;20613;-68
2023/03/23 04:20:12;;;;;;;15.27;9.57;;;;;;;;;;5078220;28;20382;-68
2023/03/23 04:22:37;;;;;;;14.63;8.63;;;;;;;;;;5053128;28;20228;-68
2023/03/23 04:25:06;;;;;;;11.57;7.93;;;;;;;;;;5052039;28;20229;-67
2023/03/23 04:27:35;;;;;;;11.63;8.50;;;;;;;;;;5031982;28;20618;-67
2023/03/23 04:30:04;;;;;;;12.77;8.90;;;;;;;;;;5038254;28;20575;-68
2023/03/23 04:32:45;;;;;;;12.87;8.60;;;;;;;;;;5033249;28;20601;-67
2023/03/23 04:35:17;;;;;;;13.57;8.83;;;;;;;;;;5062392;28;20561;-68
2023/03/23 04:37:49;;;;;;;12.93;8.50;;;;;;;;;;5062365;28;20260;-68
2023/03/23 04:40:18;;;;;;;12.50;7.97;;;;;;;;;;5057701;28;20231;-68
2023/03/23 04:42:57;;;;;;;12.20;9.13;;;;;;;;;;5041237;28;20217;-68
2023/03/23 04:46:02;;;;;;;13.53;8.23;;;;;;;;;;5015577;28;20659;-68
2023/03/23 04:48:32;;;;;;;12.10;8.60;;;;;;;;;;4982115;28;20270;-67
2023/03/23 04:51:09;;;;;;;15.53;9.00;;;;;;;;;;5028761;28;20229;-68
2023/03/23 04:53:36;;;;;;;12.90;8.47;;;;;;;;;;5042826;28;20272;-67
2023/03/23 04:56:02;;;;;;;10.97;7.77;;;;;;;;;;5039782;28;20234;-68
2023/03/23 04:58:36;;;;;;;10.73;6.97;;;;;;;;;;5041513;28;20567;-68
2023/03/23 05:01:27;;;;;;;11.93;7.40;;;;;;;;;;5043083;28;20240;-67
2023/03/23 05:04:16;;;;;;;11.03;7.33;;;;;;;;;;5030303;28;20316;-68
2023/03/23 05:06:48;;;;;;;10.87;7.50;;;;;;;;;;5060468;28;20220;-68
2023/03/23 05:09:22;;;;;;;15.27;8.23;;;;;;;;;;5027756;28;20226;-68
2023/03/23 05:11:49;;;;;;;11.80;7.67;;;;;;;;;;5014407;28;20309;-69
2023/03/23 05:14:14;;;;;;;12.97;7.97;;;;;;;;;;5047833;28;20354;-67
2023/03/23 05:16:48;;;;;;;10.87;7.17;;;;;;;;;;5049750;28;20238;-67
2023/03/23 05:19:15;;;;;;;11.93;7.40;;;;;;;;;;5061057;28;20221;-67
2023/03/23 05:21:41;;;;;;;10.23;6.77;;;;;;;;;;5056767;28;20235;-66
2023/03/23 05:24:07;;;;;;;11.53;7.00;;;;;;;;;;5047413;28;20693;-67
2023/03/23 05:26:33;;;;;;;10.97;6.83;;;;;;;;;;5060402;28;20324;-67
2023/03/23 05:29:04;;;;;;;7.30;5.97;;;;;;;;;;5058408;28;20240;-67
2023/03/23 05:31:47;;;;;;;10.87;6.80;;;;;;;;;;5069177;28;20259;-67
2023/03/23 05:34:13;;;;;;;9.87;6.20;;;;;;;;;;5062887;27;20600;-67
2023/03/23 05:36:47;;;;;;;9.73;6.87;;;;;;;;;;5072953;28;20235;-67
2023/03/23 05:39:47;;;;;;;12.57;6.20;;;;;;;;;;5037364;28;20228;-66
2023/03/23 05:42:13;;;;;;;9.23;6.43;;;;;;;;;;5062967;27;20606;-67
2023/03/23 05:44:45;;;;;;;10.33;6.97;;;;;;;;;;5062538;28;20612;-67
2023/03/23 05:47:12;;;;;;;9.63;5.93;;;;;;;;;;5060577;28;20232;-67
2023/03/23 05:49:41;;;;;;;11.07;6.07;;;;;;;;;;5077000;28;20221;-67
2023/03/23 05:52:10;;;;;;;9.47;5.87;;;;;;;;;;5062750;28;20335;-69
2023/03/23 05:54:36;;;;;;;12.23;6.37;;;;;;;;;;5051735;28;20242;-68
2023/03/23 05:57:03;;;;;;;11.53;6.00;;;;;;;;;;5080046;28;20227;-67
2023/03/23 05:59:47;;;;;;;9.50;6.00;;;;;;;;;;5062161;28;20282;-67
2023/03/23 06:02:20;;;;;;;12.47;6.80;;;;;;;;;;5044373;28;20588;-68
2023/03/23 06:04:48;;;;;;;10.23;6.60;;;;;;;;;;5063508;28;20268;-68
2023/03/23 06:07:25;;;;;;;10.03;6.43;;;;;;;;;;5058449;28;20296;-68
2023/03/23 06:10:00;;;;;;;9.90;6.43;;;;;;;;;;5053478;28;20650;-68
2023/03/23 06:12:38;;;;;;;9.33;6.70;;;;;;;;;;5043861;28;30292;-69
2023/03/23 06:15:06;;;;;;;9.07;6.27;;;;;;;;;;5046794;28;20584;-68
2023/03/23 06:17:55;;;;;;;12.07;6.43;;;;;;;;;;5063312;27;20247;-67
2023/03/23 06:20:24;;;;;;;12.80;6.90;;;;;;;;;;5057486;28;20229;-69
2023/03/23 06:22:52;;;;;;;11.20;7.80;;;;;;;;;;5042003;28;221746;-69
2023/03/23 06:25:26;;;;;;;9.63;6.70;;;;;;;;;;5078132;28;20592;-68
2023/03/23 06:27:52;;;;;;;13.40;7.10;;;;;;;;;;5072465;28;20237;-68
2023/03/23 06:30:19;;;;;;;10.67;6.63;;;;;;;;;;5059115;28;20308;-68
2023/03/23 06:32:47;;;;;;;10.67;7.20;;;;;;;;;;5005322;27;20245;-68
2023/03/23 06:35:14;;;;;;;10.83;6.60;;;;;;;;;;5077142;27;20240;-68
2023/03/23 06:38:01;;;;;;;9.20;6.80;;;;;;;;;;5070916;27;20217;-67
2023/03/23 06:41:02;;;;;;;11.27;6.50;;;;;;;;;;5003840;28;145891;-67
2023/03/23 06:43:29;;;;;;;12.03;6.30;;;;;;;;;;5036845;28;20759;-67
2023/03/23 06:46:17;;;;;;;9.47;6.40;;;;;;;;;;5043245;28;20234;-67
2023/03/23 06:49:03;;;;;;;14.20;6.10;;;;;;;;;;5030006;28;20222;-66
2023/03/23 06:51:41;;;;;;;9.23;5.90;;;;;;;;;;5023335;28;20226;-66
2023/03/23 06:54:07;;;;;;;10.07;6.00;;;;;;;;;;5074091;28;20267;-66
2023/03/23 06:56:37;;;;;;;10.40;6.10;;;;;;;;;;5043321;28;20245;-65
2023/03/23 06:59:03;;;;;;;11.07;6.40;;;;;;;;;;5068291;28;20887;-66
2023/03/23 07:01:29;;;;;;;12.47;6.33;;;;;;;;;;5058567;28;20237;-64
2023/03/23 07:03:59;;;;;;;8.97;6.50;;;;;;;;;;5062265;28;20650;-66
2023/03/23 07:06:38;;;;;;;10.93;7.13;;;;;;;;;;5064312;28;20277;-65
2023/03/23 07:09:06;;;;;;;8.73;6.07;;;;;;;;;;5031933;28;20915;-65
2023/03/23 07:11:32;;;;;;;11.20;7.13;;;;;;;;;;5017411;28;20230;-66
2023/03/23 07:14:04;;;;;;;11.73;6.60;;;;;;;;;;5046609;28;20226;-64
2023/03/23 07:16:31;;;;;;;12.37;6.63;;;;;;;;;;5033100;28;21204;-64
2023/03/23 07:18:56;;;;;;;11.20;6.80;;;;;;;;;;5033248;28;20244;-65
2023/03/23 07:21:22;;;;;;;11.07;6.17;;;;;;;;;;5045875;28;20239;-65
2023/03/23 07:23:49;;;;;;;9.17;5.87;;;;;;;;;;5041398;28;20244;-66
2023/03/23 07:26:23;;;;;;;10.70;6.13;;;;;;;;;;5055085;28;20232;-65
2023/03/23 07:28:53;;;;;;;11.63;6.23;;;;;;;;;;5060347;28;20225;-65
2023/03/23 07:31:28;;;;;;;9.17;6.70;;;;;;;;;;5059501;28;20692;-65
2023/03/23 07:33:55;;;;;;;11.10;6.97;;;;;;;;;;5064594;28;20223;-64
2023/03/23 07:36:26;;;;;;;10.00;5.70;;;;;;;;;;5062644;28;20248;-67
2023/03/23 07:38:52;;;;;;;11.80;6.10;;;;;;;;;;5058994;27;20268;-66
2023/03/23 07:41:17;;;;;;;11.10;6.03;;;;;;;;;;5060993;27;20760;-68
2023/03/23 07:43:44;;;;;;;9.30;5.70;;;;;;;;;;5036308;28;20224;-67
2023/03/23 07:46:10;;;;;;;10.17;5.83;;;;;;;;;;5084219;27;20236;-67
2023/03/23 07:48:53;;;;;;;8.83;6.30;;;;;;;;;;5047706;28;20226;-68
2023/03/23 07:51:22;;;;;;;10.13;6.00;;;;;;;;;;4990701;28;20226;-67
2023/03/23 07:53:50;;;;;;;9.40;5.40;;;;;;;;;;5052218;28;20227;-66
2023/03/23 07:56:45;;;;;;;9.80;5.43;;;;;;;;;;4986199;28;20231;-68
2023/03/23 07:59:21;;;;;;;8.70;5.77;;;;;;;;;;5050922;27;20227;-68
2023/03/23 08:01:47;;;;;;;8.30;5.17;;;;;;;;;;5057840;28;20724;-68
2023/03/23 08:04:36;;;;;;;9.60;5.50;;;;;;;;;;5057253;28;20232;-67
2023/03/23 08:07:05;;;;;;;8.93;5.63;;;;;;;;;;5072304;27;20236;-67
2023/03/23 08:09:51;;;;;;;9.03;5.50;;;;;;;;;;5063045;28;20693;-68
2023/03/23 08:12:35;;;;;;;11.50;6.03;;;;;;;;;;5046750;28;20227;-66
2023/03/23 08:15:14;;;;;;;9.50;5.47;;;;;;;;;;5061355;28;20748;-65
2023/03/23 08:17:58;;;;;;;11.20;6.17;;;;;;;;;;5046071;28;20229;-65
2023/03/23 08:20:44;;;;;;;9.00;5.63;;;;;;;;;;5060694;28;20254;-65
2023/03/23 08:23:33;;;;;;;8.90;5.93;;;;;;;;;;5033253;28;20229;-65
2023/03/23 08:26:31;;;;;;;9.83;6.37;;;;;;;;;;4996387;28;20224;-66
2023/03/23 08:29:20;;;;;;;11.13;6.13;;;;;;;;;;5025407;28;20279;-66
2023/03/23 08:31:55;;;;;;;11.10;5.90;;;;;;;;;;5051198;28;20344;-65
2023/03/23 08:34:26;;;;;;;8.17;5.47;;;;;;;;;;5038936;28;20304;-64
2023/03/23 08:37:54;;;;;;;9.70;5.97;;;;;;;;;;5001125;28;20701;-64
2023/03/23 08:41:18;;;;;;;5.27;3.53;;;;;;;;;;5023176;28;20865;-66
2023/03/23 08:48:36;;;;;;;7.13;5.20;;;;;;;;;;5041396;28;20255;-65
2023/03/23 08:55:55;;;;;;;7.53;5.23;;;;;;;;;;4951607;28;20226;-67
2023/03/23 08:59:09;;;;;;;7.97;4.77;;;;;;;;;;4969500;28;20289;-64
2023/03/23 09:02:35;;;;;;;9.37;5.23;;;;;;;;;;4919301;28;20346;-64
2023/03/23 09:06:01;;;;;;;5.00;3.80;;;;;;;;;;4902370;29;20234;-64
2023/03/23 09:09:19;;;;;;;7.50;4.90;;;;;;;;;;4903921;28;20257;-64
2023/03/23 09:12:23;;;;;;;7.60;4.80;;;;;;;;;;4894222;28;20238;-65
2023/03/23 09:15:13;;;;;;;7.90;4.27;;;;;;;;;;4895456;29;20231;-66
2023/03/23 09:17:45;;;;;;;5.70;4.13;;;;;;;;;;4916912;29;20752;-64
2023/03/23 09:32:45;;;;;;;6.87;4.57;;;;;;;;;;4865184;28;20745;-64
2023/03/23 09:36:25;;;;;;;6.97;4.03;;;;;;;;;;4897633;29;20314;-64
2023/03/23 09:39:36;;;;;;;5.03;3.30;;;;;;;;;;4945966;28;20223;-63
2023/03/23 09:57:23;;;;;;;;;;;;;;;;;;;;;
2023/03/23 10:00:56;;;;;;;6.07;3.63;;;;;;;;;;4983200;28;20195;-76
2023/03/23 10:04:37;;;;;;;5.87;4.07;;;;;;;;;;4978453;28;20216;-73
2023/03/23 10:07:33;;;;;;;4.87;3.93;;;;;;;;;;4949220;28;20719;-73
2023/03/23 10:10:52;;;;;;;5.60;2.63;;;;;;;;;;4890452;29;20208;-77
2023/03/23 10:16:37;;;;;;;5.07;3.47;;;;;;;;;;4886733;29;20289;-76
2023/03/23 10:19:12;;;;;;;5.57;2.60;;;;;;;;;;4877131;29;20223;-75
2023/03/23 10:21:39;;;;;;;4.30;3.10;;;;;;;;;;4982849;28;20339;-75
2023/03/23 10:24:08;;;;;;;5.80;3.97;;;;;;;;;;4940811;28;20212;-74
2023/03/23 10:26:34;;;;;;;6.67;3.27;;;;;;;;;;4953927;28;20232;-74
2023/03/23 10:29:11;;;;;;;6.10;3.77;;;;;;;;;;4966661;28;20200;-73
2023/03/23 10:31:43;;;;;;;4.97;2.93;;;;;;;;;;4955000;28;20650;-76
2023/03/23 10:34:14;;;;;;;4.17;3.13;;;;;;;;;;4966564;28;20229;-75
2023/03/23 10:37:15;;;;;;;5.57;2.83;;;;;;;;;;4969870;28;20197;-75
2023/03/23 10:39:44;;;;;;;4.73;3.50;;;;;;;;;;4958675;28;20207;-75
2023/03/23 10:42:10;;;;;;;4.30;3.20;;;;;;;;;;5012611;28;20198;-74
2023/03/23 10:44:36;;;;;;;4.67;3.23;;;;;;;;;;5001697;28;20273;-76
2023/03/23 10:47:06;;;;;;;4.20;2.90;;;;;;;;;;5048414;28;20262;-75
2023/03/23 10:49:34;;;;;;;4.67;3.13;;;;;;;;;;5011191;28;22967;-73
2023/03/23 10:52:11;;;;;;;5.83;3.03;;;;;;;;;;5043212;28;20214;-76
2023/03/23 10:54:40;;;;;;;3.17;2.80;;;;;;;;;;5028818;28;20190;-76
2023/03/23 10:57:23;;;;;;;3.47;3.17;;;;;;;;;;5009666;28;20191;-75
2023/03/23 10:59:50;;;;;;;5.03;3.13;;;;;;;;;;5029676;28;20662;-76
2023/03/23 11:02:18;;;;;;;3.93;2.83;;;;;;;;;;4996440;28;20217;-74
2023/03/23 11:04:59;;;;;;;5.33;3.13;;;;;;;;;;5014154;28;20190;-75
2023/03/23 11:07:27;;;;;;;3.80;2.73;;;;;;;;;;4994734;28;20724;-75
2023/03/23 11:09:53;;;;;;;4.47;2.40;;;;;;;;;;5011671;28;20195;-75
2023/03/23 11:12:20;;;;;;;2.80;2.50;;;;;;;;;;5014742;28;20197;-75
2023/03/23 11:14:46;;;;;;;4.40;3.17;;;;;;;;;;5014424;28;20726;-72
2023/03/23 11:17:26;;;;;;;4.50;2.80;;;;;;;;;;5013190;28;20194;-73
2023/03/23 11:19:54;;;;;;;4.20;2.87;;;;;;;;;;5014347;28;20257;-75
2023/03/23 11:22:25;;;;;;;3.70;2.30;;;;;;;;;;5049266;28;20225;-73
2023/03/23 11:24:52;;;;;;;4.20;2.13;;;;;;;;;;5012936;28;20198;-77
2023/03/23 11:27:18;;;;;;;4.13;2.17;;;;;;;;;;5061045;28;20537;-73
2023/03/23 11:30:03;;;;;;;4.30;2.47;;;;;;;;;;5012977;28;20865;-68
2023/03/23 11:32:28;;;;;;;4.23;2.77;;;;;;;;;;5054237;28;20182;-69
2023/03/23 11:34:58;;;;;;;4.07;2.60;;;;;;;;;;5040694;28;20198;-68
2023/03/23 11:37:31;;;;;;;3.67;3.07;;;;;;;;;;5015226;28;20190;-68
2023/03/23 11:39:57;;;;;;;4.63;3.17;;;;;;;;;;5046533;28;20186;-69
2023/03/23 11:42:32;;;;;;;3.50;3.03;;;;;;;;;;5050565;28;20210;-70
2023/03/23 11:45:18;;;;;;;2.90;2.60;;;;;;;;;;5045364;28;20292;-69
2023/03/23 11:47:50;;;;;;;3.53;2.50;;;;;;;;;;5028467;28;20261;-68
2023/03/23 11:50:17;;;;;;;3.70;2.37;;;;;;;;;;5045291;28;20199;-68
2023/03/23 11:52:46;;;;;;;2.50;2.13;;;;;;;;;;5021535;28;20546;-69
2023/03/23 11:55:14;;;;;;;3.80;2.20;;;;;;;;;;5029753;28;20270;-69
2023/03/23 11:57:40;;;;;;;4.23;2.37;;;;;;;;;;5049831;28;20190;-68
2023/03/23 12:00:16;;;;;;;2.40;1.60;;;;;;;;;;5051431;28;20569;-67
2023/03/23 12:03:01;;;;;;;2.87;2.17;;;;;;;;;;5029149;28;20186;-68
2023/03/23 12:05:46;;;;;;;3.13;1.90;;;;;;;;;;5046860;28;20222;-68
2023/03/23 12:08:15;;;;;;;3.20;1.93;;;;;;;;;;5035357;28;20205;-68
2023/03/23 12:10:41;;;;;;;2.67;2.00;;;;;;;;;;5057596;28;20950;-69
2023/03/23 12:13:18;;;;;;;3.33;1.87;;;;;;;;;;5038185;28;20191;-68
2023/03/23 12:16:08;;;;;;;2.93;1.90;;;;;;;;;;5034837;28;20190;-68
2023/03/23 12:18:53;;;;;;;2.77;1.97;;;;;;;;;;5023351;28;20554;-69
2023/03/23 12:21:30;;;;;;;2.40;1.83;;;;;;;;;;5027716;28;20195;-68
2023/03/23 12:24:08;;;;;;;1.63;1.47;;;;;;;;;;5027971;28;20202;-68
2023/03/23 12:26:39;;;;;;;2.00;1.60;;;;;;;;;;5011082;28;20309;-67
2023/03/23 12:29:14;;;;;;;2.53;1.90;;;;;;;;;;5038849;28;20199;-67
2023/03/23 12:31:55;;;;;;;3.03;1.47;;;;;;;;;;5041635;28;20207;-67
2023/03/23 12:34:26;;;;;;;2.87;1.90;;;;;;;;;;5063859;28;20548;-67
2023/03/23 12:37:03;;;;;;;1.77;1.40;;;;;;;;;;5047282;28;20759;-67
2023/03/23 12:39:29;;;;;;;1.87;1.57;;;;;;;;;;5044539;28;20202;-66
2023/03/23 12:42:01;;;;;;;2.97;2.10;;;;;;;;;;5026682;28;20187;-66
2023/03/23 12:44:47;;;;;;;2.70;1.53;;;;;;;;;;5043921;28;20277;-67
2023/03/23 12:47:18;;;;;;;2.10;1.70;;;;;;;;;;5031751;28;20953;-66
2023/03/23 12:49:54;;;;;;;3.03;1.60;;;;;;;;;;5063649;28;20604;-67
2023/03/23 12:52:23;;;;;;;2.27;1.40;;;;;;;;;;5031049;28;20190;-66
2023/03/23 12:54:51;;;;;;;2.73;1.70;;;;;;;;;;5055095;28;20588;-67
2023/03/23 12:57:20;;;;;;;3.13;1.83;;;;;;;;;;5043335;28;20204;-66
2023/03/23 12:59:48;;;;;;;2.07;1.67;;;;;;;;;;5065081;28;20272;-66
2023/03/23 13:02:30;;;;;;;2.50;1.70;;;;;;;;;;5027129;28;20420;-66
2023/03/23 13:05:04;;;;;;;1.80;1.17;;;;;;;;;;5044883;28;20198;-67
2023/03/23 13:07:45;;;;;;;1.97;1.43;;;;;;;;;;5025783;28;20213;-66
2023/03/23 13:10:23;;;;;;;2.03;1.50;;;;;;;;;;5044514;28;20195;-65
2023/03/23 13:12:50;;;;;;;2.40;1.60;;;;;;;;;;5050879;28;20687;-67
2023/03/23 13:15:31;;;;;;;1.50;1.10;;;;;;;;;;5059705;28;20197;-67
2023/03/23 13:18:04;;;;;;;2.33;1.63;;;;;;;;;;5045170;28;20195;-68
2023/03/23 13:20:50;;;;;;;3.23;1.67;;;;;;;;;;5044769;28;20773;-68
2023/03/23 13:23:17;;;;;;;1.40;1.20;;;;;;;;;;5022692;28;20190;-66
2023/03/23 13:26:03;;;;;;;1.80;0.80;;;;;;;;;;5032843;28;20207;-64
2023/03/23 13:28:30;;;;;;;1.83;1.37;;;;;;;;;;5044222;28;20197;-66
2023/03/23 13:31:11;;;;;;;2.33;1.40;;;;;;;;;;5026687;28;20234;-66
2023/03/23 13:33:37;;;;;;;3.27;1.50;;;;;;;;;;5027547;28;20190;-66
2023/03/23 13:36:10;;;;;;;2.63;1.90;;;;;;;;;;5013369;28;20217;-65
2023/03/23 13:38:36;;;;;;;2.07;1.60;;;;;;;;;;5045808;28;20265;-65
2023/03/23 13:41:09;;;;;;;3.33;1.60;;;;;;;;;;5029672;28;20775;-65
2023/03/23 13:43:35;;;;;;;2.13;1.70;;;;;;;;;;5046029;28;20573;-65
2023/03/23 13:46:07;;;;;;;1.37;1.27;;;;;;;;;;5046091;28;20211;-65
2023/03/23 13:48:40;;;;;;;2.27;1.80;;;;;;;;;;5047678;28;20186;-65
2023/03/23 13:51:24;;;;;;;3.23;2.20;;;;;;;;;;5029627;28;20198;-65
2023/03/23 13:53:51;;;;;;;2.53;1.90;;;;;;;;;;5041466;28;20274;-65
2023/03/23 13:56:21;;;;;;;1.70;1.50;;;;;;;;;;5027800;28;20191;-65
2023/03/23 13:59:04;;;;;;;4.37;2.03;;;;;;;;;;5029754;28;20306;-65
2023/03/23 14:01:32;;;;;;;1.87;1.47;;;;;;;;;;5047154;28;20506;-65
2023/03/23 14:04:00;;;;;;;2.60;1.63;;;;;;;;;;5029486;28;20713;-65
2023/03/23 14:06:27;;;;;;;2.27;1.87;;;;;;;;;;5047378;28;20278;-65
2023/03/23 14:09:23;;;;;;;2.23;1.63;;;;;;;;;;5031011;28;20249;-65
2023/03/23 14:11:59;;;;;;;2.83;1.80;;;;;;;;;;5031370;28;20199;-65
2023/03/23 14:14:39;;;;;;;3.40;2.17;;;;;;;;;;5030291;28;20195;-65
2023/03/23 14:17:15;;;;;;;3.17;1.83;;;;;;;;;;5046855;28;20190;-65
2023/03/23 14:19:41;;;;;;;2.67;2.00;;;;;;;;;;5048838;28;20236;-65
2023/03/23 14:22:22;;;;;;;3.03;2.00;;;;;;;;;;5026018;28;20217;-65
2023/03/23 14:24:48;;;;;;;2.53;2.03;;;;;;;;;;5033274;28;20190;-65
2023/03/23 14:27:20;;;;;;;3.57;2.10;;;;;;;;;;5040425;28;20195;-65
2023/03/23 14:29:46;;;;;;;2.60;1.70;;;;;;;;;;5040240;28;20194;-65
2023/03/23 14:32:15;;;;;;;3.13;1.80;;;;;;;;;;5028178;28;20966;-65
2023/03/23 14:34:41;;;;;;;1.57;1.13;;;;;;;;;;5033478;28;20203;-65
2023/03/23 14:37:12;;;;;;;2.70;1.50;;;;;;;;;;5031600;28;20638;-64
2023/03/23 14:39:38;;;;;;;3.10;1.87;;;;;;;;;;5048170;28;20182;-64
2023/03/23 14:42:06;;;;;;;3.83;2.00;;;;;;;;;;5049223;28;20198;-65
2023/03/23 14:44:34;;;;;;;4.07;2.20;;;;;;;;;;5048466;28;20265;-65
2023/03/23 14:47:04;;;;;;;4.23;2.13;;;;;;;;;;5049070;28;20199;-65
2023/03/23 14:49:31;;;;;;;3.27;2.30;;;;;;;;;;5049633;28;20187;-64
2023/03/23 14:51:56;;;;;;;4.63;2.20;;;;;;;;;;5029242;28;20214;-65
2023/03/23 14:54:26;;;;;;;2.97;2.20;;;;;;;;;;5050619;28;20981;-65
2023/03/23 14:56:52;;;;;;;2.13;1.63;;;;;;;;;;5044096;28;20195;-65
2023/03/23 14:59:18;;;;;;;2.60;2.23;;;;;;;;;;5049787;28;20194;-65
2023/03/23 15:01:44;;;;;;;3.73;2.27;;;;;;;;;;5049806;28;20217;-65
2023/03/23 15:04:11;;;;;;;3.83;2.20;;;;;;;;;;5031443;28;20190;-65
2023/03/23 15:06:37;;;;;;;3.03;2.27;;;;;;;;;;5031341;28;20203;-65
2023/03/23 15:09:07;;;;;;;4.33;2.47;;;;;;;;;;5031777;28;20214;-65
2023/03/23 15:11:36;;;;;;;4.70;2.57;;;;;;;;;;5030563;28;20175;-65
2023/03/23 15:14:06;;;;;;;3.93;2.20;;;;;;;;;;5027609;28;20191;-64
2023/03/23 15:16:32;;;;;;;3.17;2.50;;;;;;;;;;5051347;28;20187;-64
2023/03/23 15:19:05;;;;;;;3.83;2.10;;;;;;;;;;5034105;28;20194;-64
2023/03/23 15:21:31;;;;;;;5.00;3.07;;;;;;;;;;5034109;28;20237;-64
2023/03/23 15:23:57;;;;;;;4.00;2.20;;;;;;;;;;5050747;28;20197;-64
2023/03/23 15:26:24;;;;;;;7.27;3.40;;;;;;;;;;5050950;28;20210;-64
2023/03/23 15:28:50;;;;;;;4.57;3.10;;;;;;;;;;5050577;28;20222;-64
2023/03/23 15:31:16;;;;;;;5.03;3.17;;;;;;;;;;5050806;28;20217;-64
2023/03/23 15:33:41;;;;;;;7.37;3.87;;;;;;;;;;5034550;28;20190;-64
2023/03/23 15:36:09;;;;;;;6.30;3.50;;;;;;;;;;5049846;28;20187;-64
2023/03/23 15:38:35;;;;;;;4.63;2.90;;;;;;;;;;5033133;28;20215;-64
2023/03/23 15:41:02;;;;;;;3.97;2.87;;;;;;;;;;5052377;28;20717;-64
2023/03/23 15:43:30;;;;;;;4.70;3.00;;;;;;;;;;5051747;28;20230;-64
2023/03/23 15:45:58;;;;;;;6.40;3.37;;;;;;;;;;5048966;28;20566;-64
2023/03/23 15:48:24;;;;;;;5.57;3.70;;;;;;;;;;5050557;28;20179;-64
2023/03/23 15:50:50;;;;;;;7.53;3.03;;;;;;;;;;5051463;28;20198;-64
2023/03/23 15:53:19;;;;;;;5.40;2.97;;;;;;;;;;5027883;28;20187;-65
2023/03/23 15:55:46;;;;;;;4.93;2.97;;;;;;;;;;5050057;28;20672;-64
2023/03/23 15:58:12;;;;;;;3.50;2.30;;;;;;;;;;5051356;28;20661;-64
2023/03/23 16:00:39;;;;;;;4.27;2.67;;;;;;;;;;5051459;28;20241;-64
2023/03/23 16:03:07;;;;;;;4.77;3.10;;;;;;;;;;5051469;28;20198;-64
2023/03/23 16:05:34;;;;;;;5.70;3.00;;;;;;;;;;5032880;28;20238;-64
2023/03/23 16:08:01;;;;;;;4.83;3.30;;;;;;;;;;5051410;28;20187;-64
2023/03/23 16:10:28;;;;;;;3.90;2.53;;;;;;;;;;5050363;28;20276;-64
2023/03/23 16:12:55;;;;;;;4.70;3.00;;;;;;;;;;5052899;28;20179;-64
2023/03/23 16:15:22;;;;;;;6.33;4.23;;;;;;;;;;5050546;28;20237;-64
2023/03/23 16:17:49;;;;;;;6.37;4.23;;;;;;;;;;5051283;28;20198;-64
2023/03/23 16:20:19;;;;;;;9.33;4.77;;;;;;;;;;5051785;28;20190;-63
2023/03/23 16:22:46;;;;;;;8.40;5.00;;;;;;;;;;5033391;28;20581;-64
2023/03/23 16:25:13;;;;;;;5.93;4.40;;;;;;;;;;5048683;28;20213;-64
2023/03/23 16:27:40;;;;;;;7.27;4.63;;;;;;;;;;5054488;28;20222;-65